Terminal Aerodrome Forecast
Issued by NWS

Home | Current Version | Previous Version | Text Only | Print | Product List | Glossary Off
Versions: 1 2 3 4 5 6 7 8 9 10 11 12 13 14 15 16 17

000
FTUS43 KFGF 272211 AAA
TAFBJI
TAF AMD
KBJI 272211Z 2722/2818 VRB06KT P6SM VCTS SCT050CB BKN100
      TEMPO 2722/2723 VRB15KT P6SM -TSRA BKN050CB
     FM280000 VRB04KT P6SM SCT100=

USA.gov is the U.S. government's official web portal to all federal, state and local government web resources and services.